Time;durP1;ratioP1;P1;durP2;ratioP2;P2;SDS_P1;SDS_P2;PMS_P1;PMS_P2;Temp;Humidity;BMP_temperature;BMP_pressure;BME280_temperature;BME280_humidity;BME280_pressure;Samples;Min_cycle;Max_cycle;Signal;HPM_P1;HPM_P2
2021/11/20 00:03:19;;;;;;;13.93;4.90;;;;;;;12.86;89.64;102346.75;6231825;28;20220;-66
2021/11/20 00:06:42;;;;;;;14.70;4.70;;;;;;;12.67;89.79;102351.84;6238586;28;20221;-67
2021/11/20 00:10:05;;;;;;;12.70;5.90;;;;;;;12.84;89.30;102349.34;6234998;28;20224;-67
2021/11/20 00:13:26;;;;;;;9.87;5.13;;;;;;;12.84;89.25;102349.34;6237926;28;20808;-65
2021/11/20 00:16:51;;;;;;;11.23;5.10;;;;;;;12.60;90.21;102344.81;6234000;28;20206;-65
2021/11/20 00:20:15;;;;;;;11.47;4.57;;;;;;;12.23;91.60;102344.56;6214114;28;20373;-67
2021/11/20 00:23:39;;;;;;;14.27;5.03;;;;;;;11.99;94.55;102340.88;6235258;28;20228;-65
2021/11/20 00:27:01;;;;;;;14.90;5.33;;;;;;;12.14;93.88;102339.28;6229380;28;20256;-66
2021/11/20 00:30:29;;;;;;;10.27;5.03;;;;;;;12.34;93.20;102326.38;6220468;28;20224;-65
2021/11/20 00:33:52;;;;;;;10.20;4.17;;;;;;;12.23;94.50;102336.72;6228944;28;20223;-66
2021/11/20 00:37:15;;;;;;;10.87;5.53;;;;;;;12.25;93.38;102337.59;6234772;28;20259;-65
2021/11/20 00:40:40;;;;;;;10.53;4.20;;;;;;;12.41;92.61;102334.25;6234574;28;20233;-65
2021/11/20 00:44:02;;;;;;;11.63;4.83;;;;;;;12.35;91.87;102323.78;6234332;28;20556;-66
2021/11/20 00:47:23;;;;;;;11.07;5.27;;;;;;;12.50;91.71;102328.22;6240393;28;20204;-66
2021/11/20 00:50:49;;;;;;;9.23;3.93;;;;;;;12.22;93.82;102334.97;6235423;28;20233;-67
2021/11/20 00:54:11;;;;;;;7.27;4.87;;;;;;;12.31;91.87;102321.09;6222243;28;20224;-66
2021/11/20 00:57:31;;;;;;;9.33;4.67;;;;;;;12.47;91.42;102324.72;6213466;28;20189;-66
2021/11/20 01:00:55;;;;;;;9.60;4.20;;;;;;;12.34;91.64;102321.13;6221399;28;20232;-66
2021/11/20 01:04:19;;;;;;;9.67;3.97;;;;;;;11.99;92.92;102332.16;6223534;28;20389;-67
2021/11/20 01:07:41;;;;;;;11.47;4.60;;;;;;;12.17;93.09;102331.44;6241879;28;20676;-67
2021/11/20 01:11:06;;;;;;;10.47;4.60;;;;;;;12.01;94.40;102333.06;6216968;28;20244;-67
2021/11/20 01:14:28;;;;;;;7.63;4.30;;;;;;;12.26;94.00;102318.47;6235759;28;20613;-66
2021/11/20 01:17:51;;;;;;;11.77;4.67;;;;;;;12.28;92.88;102327.19;6237737;28;20326;-66
2021/11/20 01:21:14;;;;;;;13.07;5.10;;;;;;;12.15;93.67;102330.56;6222211;28;20256;-65
2021/11/20 01:24:36;;;;;;;7.60;4.67;;;;;;;12.28;92.86;102318.50;6232310;28;20216;-65
2021/11/20 01:27:58;;;;;;;13.30;5.30;;;;;;;11.90;93.90;102327.72;6236188;28;20208;-65
2021/11/20 01:31:42;;;;;;;8.20;5.87;;;;;;;11.95;94.94;102327.78;6233059;28;20586;-65
2021/11/20 01:35:04;;;;;;;10.50;5.30;;;;;;;12.12;94.68;102320.09;6236506;28;20240;-65
2021/11/20 01:38:28;;;;;;;11.47;5.33;;;;;;;12.52;92.13;102315.16;6214938;28;20233;-65
2021/11/20 01:42:02;;;;;;;13.70;5.70;;;;;;;12.25;92.58;102314.09;6231275;28;20237;-65
2021/11/20 01:45:32;;;;;;;9.83;5.23;;;;;;;12.52;91.26;102305.63;6224238;28;20331;-65
2021/11/20 01:49:10;;;;;;;14.40;7.43;;;;;;;12.18;92.71;102304.47;6235095;28;20317;-66
2021/11/20 01:52:47;;;;;;;14.43;5.50;;;;;;;12.11;93.57;102307.91;6230827;28;20846;-65
2021/11/20 01:56:13;;;;;;;11.77;5.37;;;;;;;12.07;94.27;102313.97;6223626;28;20225;-65
2021/11/20 01:59:45;;;;;;;8.00;6.00;;;;;;;11.94;93.68;102316.47;6224916;28;20232;-66
2021/11/20 02:03:30;;;;;;;12.90;5.37;;;;;;;11.88;94.27;102307.66;6242233;28;20228;-66
2021/11/20 02:06:58;;;;;;;11.87;5.87;;;;;;;12.07;94.18;102312.22;6226679;28;20224;-66
2021/11/20 02:10:24;;;;;;;14.03;7.23;;;;;;;12.09;94.10;102312.22;6223179;28;20220;-65
2021/11/20 02:13:48;;;;;;;8.50;6.17;;;;;;;12.16;93.36;102306.22;6240962;28;20231;-65
2021/11/20 02:17:15;;;;;;;9.90;6.73;;;;;;;12.18;93.90;102301.88;6228318;28;20241;-65
2021/11/20 02:20:45;;;;;;;9.57;5.90;;;;;;;12.22;93.61;102295.81;6225586;28;20248;-65
2021/11/20 02:24:20;;;;;;;16.13;6.73;;;;;;;11.94;96.02;102297.28;6224255;28;20303;-65
2021/11/20 02:28:04;;;;;;;11.60;6.53;;;;;;;11.85;95.55;102294.59;6236925;28;20552;-65
2021/11/20 02:31:27;;;;;;;15.70;8.23;;;;;;;12.06;94.35;102284.38;6224078;28;20359;-65
2021/11/20 02:34:50;;;;;;;10.13;7.50;;;;;;;12.01;95.44;102292.13;6237531;28;20228;-66
2021/11/20 02:38:16;;;;;;;13.07;7.50;;;;;;;11.71;96.75;102286.59;6239186;28;20586;-65
2021/11/20 02:41:38;;;;;;;14.20;8.17;;;;;;;12.00;95.49;102295.63;6226135;28;20303;-65
2021/11/20 02:45:00;;;;;;;13.27;8.23;;;;;;;11.98;94.58;102292.13;6220400;28;20248;-65
2021/11/20 02:48:23;;;;;;;11.60;7.97;;;;;;;12.16;93.68;102282.69;6222841;28;20260;-65
2021/11/20 02:51:47;;;;;;;22.90;8.40;;;;;;;12.00;94.38;102282.56;6236236;28;20254;-65
2021/11/20 02:55:09;;;;;;;9.77;7.17;;;;;;;12.13;93.63;102280.06;6237746;28;20645;-65
2021/11/20 02:58:30;;;;;;;14.77;7.53;;;;;;;12.19;93.95;102280.09;6224803;28;20228;-65
2021/11/20 03:01:53;;;;;;;14.90;7.57;;;;;;;11.98;94.46;102278.19;6223516;28;20765;-65
2021/11/20 03:05:17;;;;;;;15.67;6.73;;;;;;;11.99;93.82;102272.97;6236716;28;20315;-65
2021/11/20 03:08:38;;;;;;;8.00;5.83;;;;;;;12.28;92.84;102267.09;6240554;28;20259;-65
2021/11/20 03:12:08;;;;;;;9.13;5.37;;;;;;;12.12;92.35;102260.03;6225141;28;20225;-65
2021/11/20 03:15:29;;;;;;;11.43;5.37;;;;;;;11.93;92.27;102265.09;6226795;28;20225;-65
2021/11/20 03:18:51;;;;;;;8.67;4.97;;;;;;;12.45;90.90;102261.13;6238783;28;20618;-65
2021/11/20 03:22:17;;;;;;;10.73;4.90;;;;;;;12.61;89.17;102262.97;6235323;28;20226;-65
2021/11/20 03:25:38;;;;;;;10.43;5.17;;;;;;;12.21;90.50;102265.31;6225702;28;20232;-65
2021/11/20 03:28:59;;;;;;;14.93;6.17;;;;;;;12.04;91.65;102248.66;6229904;28;20602;-65
2021/11/20 03:32:20;;;;;;;7.43;4.87;;;;;;;11.88;92.65;102248.47;6224722;28;20228;-65
2021/11/20 03:35:43;;;;;;;7.80;5.43;;;;;;;12.21;90.71;102252.25;6242038;28;20225;-66
2021/11/20 03:39:20;;;;;;;12.97;6.80;;;;;;;12.13;91.17;102257.41;6223871;28;20224;-65
2021/11/20 03:42:41;;;;;;;13.43;6.93;;;;;;;12.24;90.30;102252.28;6225078;28;20197;-65
2021/11/20 03:46:02;;;;;;;14.43;7.70;;;;;;;12.26;90.10;102254.91;6228551;28;20699;-66
2021/11/20 03:49:25;;;;;;;9.07;6.37;;;;;;;12.25;89.67;102253.16;6224424;28;20504;-65
2021/11/20 03:52:47;;;;;;;15.63;7.13;;;;;;;12.02;90.00;102261.72;6233435;28;20200;-65
2021/11/20 03:56:12;;;;;;;12.00;7.90;;;;;;;12.17;91.13;102259.22;6225335;28;20217;-65
2021/11/20 03:59:33;;;;;;;24.10;9.43;;;;;;;12.40;90.71;102254.13;6238960;28;20221;-66
2021/11/20 04:02:55;;;;;;;16.43;9.67;;;;;;;11.94;91.48;102251.19;6242592;28;20193;-65
2021/11/20 04:06:18;;;;;;;13.30;8.07;;;;;;;11.67;92.25;102261.34;6227274;28;20222;-65
2021/11/20 04:09:47;;;;;;;15.60;9.90;;;;;;;11.98;91.93;102254.69;6231157;28;20235;-65
2021/11/20 04:13:11;;;;;;;21.93;10.47;;;;;;;12.13;90.78;102253.94;6231418;28;20252;-67
2021/11/20 04:16:34;;;;;;;19.37;9.80;;;;;;;12.18;90.29;102247.03;6227520;28;20193;-65
2021/11/20 04:19:56;;;;;;;14.27;9.80;;;;;;;12.16;90.50;102233.09;6224086;28;20220;-66
2021/11/20 04:23:17;;;;;;;15.70;9.97;;;;;;;12.17;90.12;102240.03;6222536;28;20232;-64
2021/11/20 04:26:40;;;;;;;24.80;11.33;;;;;;;11.93;91.90;102231.16;6235639;28;20232;-66
2021/11/20 04:30:05;;;;;;;20.70;10.63;;;;;;;11.91;92.17;102227.66;6222492;28;20229;-66
2021/11/20 04:33:27;;;;;;;15.83;10.23;;;;;;;11.94;91.76;102227.72;6228360;28;20260;-65
2021/11/20 04:36:47;;;;;;;28.40;11.33;;;;;;;11.99;92.18;102225.97;6223973;28;20193;-66
2021/11/20 04:40:11;;;;;;;15.43;10.27;;;;;;;11.91;92.42;102226.81;6234690;28;20501;-65
2021/11/20 04:43:32;;;;;;;15.53;10.60;;;;;;;11.70;94.06;102217.03;6215431;28;20224;-65
2021/11/20 04:46:55;;;;;;;20.07;11.90;;;;;;;12.08;91.55;102217.38;6224676;28;20477;-65
2021/11/20 04:50:18;;;;;;;20.73;10.87;;;;;;;11.76;92.47;102217.06;6224217;28;20225;-65
2021/11/20 04:53:41;;;;;;;24.23;10.83;;;;;;;11.61;93.63;102218.69;6211499;28;20228;-65
2021/11/20 04:57:02;;;;;;;17.10;10.03;;;;;;;11.63;94.44;102213.47;6240513;28;20224;-66
2021/11/20 05:00:26;;;;;;;11.93;8.77;;;;;;;11.65;95.30;102203.06;6214381;28;20224;-65
2021/11/20 05:03:53;;;;;;;16.50;9.30;;;;;;;11.71;93.79;102208.31;6220089;28;20755;-65
2021/11/20 05:07:16;;;;;;;19.33;10.13;;;;;;;11.80;94.22;102205.78;6224852;28;20470;-65
2021/11/20 05:10:38;;;;;;;15.10;9.90;;;;;;;11.62;95.39;102196.94;6223279;28;20622;-65
2021/11/20 05:14:01;;;;;;;16.53;11.00;;;;;;;11.62;95.04;102199.56;6234822;28;20303;-65
2021/11/20 05:17:23;;;;;;;15.30;10.10;;;;;;;11.93;94.35;102204.19;6224378;28;20521;-65
2021/11/20 05:20:47;;;;;;;17.03;11.13;;;;;;;11.69;94.72;102200.50;6222000;28;20224;-65
2021/11/20 05:24:07;;;;;;;19.00;10.30;;;;;;;11.53;96.27;102196.84;6238872;28;20228;-65
2021/11/20 05:27:28;;;;;;;15.47;10.10;;;;;;;11.30;96.54;102201.00;6224031;28;20193;-65
2021/11/20 05:30:51;;;;;;;25.00;12.00;;;;;;;11.61;95.56;102179.56;6220748;28;20618;-65
2021/11/20 05:34:14;;;;;;;14.20;11.13;;;;;;;11.49;95.90;102189.00;6236986;28;20240;-65
2021/11/20 05:37:37;;;;;;;19.83;10.70;;;;;;;11.53;95.46;102185.56;6232913;28;20198;-64
2021/11/20 05:41:00;;;;;;;19.70;12.43;;;;;;;11.59;95.97;102194.34;6207177;28;20236;-65
2021/11/20 05:44:34;;;;;;;12.87;11.00;;;;;;;11.59;95.28;102177.78;6237045;28;20236;-65
2021/11/20 05:48:00;;;;;;;17.47;10.43;;;;;;;11.71;94.74;102177.00;6220538;28;20220;-66
2021/11/20 05:51:23;;;;;;;18.73;11.57;;;;;;;11.66;93.93;102179.59;6221221;28;20224;-65
2021/11/20 05:54:46;;;;;;;17.90;11.13;;;;;;;11.87;93.72;102165.84;6238462;28;20673;-65
2021/11/20 05:58:11;;;;;;;19.53;12.27;;;;;;;11.67;94.53;102164.78;6217112;28;20196;-65
2021/11/20 06:01:33;;;;;;;23.13;11.70;;;;;;;11.60;93.58;102167.34;6225690;28;20193;-65
2021/11/20 06:04:54;;;;;;;18.10;11.10;;;;;;;11.48;94.00;102162.06;6231248;28;20229;-65
2021/11/20 06:08:16;;;;;;;19.47;12.17;;;;;;;11.41;94.97;102158.50;6237505;28;20197;-65
2021/11/20 06:11:38;;;;;;;21.90;12.33;;;;;;;11.58;94.14;102160.41;6235595;28;20233;-65
2021/11/20 06:14:59;;;;;;;18.77;11.30;;;;;;;11.52;94.64;102165.56;6245006;28;20236;-65
2021/11/20 06:18:22;;;;;;;18.27;11.90;;;;;;;11.45;94.27;102159.41;6235197;28;20349;-66
2021/11/20 06:21:43;;;;;;;20.00;11.63;;;;;;;11.43;95.35;102166.34;6230339;28;20288;-66
2021/11/20 06:25:10;;;;;;;13.13;11.47;;;;;;;11.72;93.66;102177.03;6227568;28;20235;-66
2021/11/20 06:28:33;;;;;;;16.90;10.43;;;;;;;11.67;92.82;102175.22;6227851;28;20224;-66
2021/11/20 06:31:54;;;;;;;17.60;12.07;;;;;;;11.73;92.61;102178.78;6223979;28;20228;-66
2021/11/20 06:35:38;;;;;;;21.00;12.03;;;;;;;12.01;91.24;102185.09;6208902;28;20567;-65
2021/11/20 06:39:07;;;;;;;13.33;10.23;;;;;;;11.79;92.40;102180.56;6215662;28;20590;-66
2021/11/20 06:42:28;;;;;;;16.23;11.67;;;;;;;11.52;94.04;102182.09;6216912;28;20217;-65
2021/11/20 06:45:54;;;;;;;20.30;12.53;;;;;;;11.57;93.18;102180.41;6233227;28;20252;-66
2021/11/20 06:49:16;;;;;;;13.67;10.93;;;;;;;11.74;91.91;102192.69;6223137;28;20335;-66
2021/11/20 06:52:42;;;;;;;16.13;11.87;;;;;;;11.62;92.54;102193.47;6205875;28;20196;-65
2021/11/20 06:56:47;;;;;;;16.50;12.10;;;;;;;11.79;91.79;102196.22;6213245;28;20216;-65
2021/11/20 07:00:30;;;;;;;16.57;11.77;;;;;;;11.70;92.37;102189.19;6225440;28;20228;-65
2021/11/20 07:04:17;;;;;;;14.57;11.97;;;;;;;11.51;93.14;102185.53;6216082;28;20492;-65
2021/11/20 07:07:39;;;;;;;14.67;11.63;;;;;;;11.61;93.51;102176.06;6236816;28;20627;-66
2021/11/20 07:11:02;;;;;;;16.53;11.63;;;;;;;11.53;93.06;102181.19;6225465;28;20224;-66
2021/11/20 07:14:25;;;;;;;14.50;11.73;;;;;;;11.75;91.84;102171.84;6222650;28;20233;-66
2021/11/20 07:17:46;;;;;;;17.60;12.00;;;;;;;11.79;92.75;102180.56;6241613;28;20193;-66
2021/11/20 07:21:44;;;;;;;16.33;10.83;;;;;;;11.43;93.18;102177.63;6157661;28;20228;-66
2021/11/20 07:25:27;;;;;;;27.50;12.63;;;;;;;11.65;92.74;102176.97;6224242;28;20607;-65
2021/11/20 07:28:49;;;;;;;14.90;12.20;;;;;;;11.45;93.10;102169.84;6227643;28;20224;-64
2021/11/20 07:32:11;;;;;;;17.40;11.40;;;;;;;11.35;94.97;102174.09;6223134;28;20232;-66
2021/11/20 07:35:36;;;;;;;16.93;13.00;;;;;;;11.50;92.75;102172.50;6232124;28;20319;-65
2021/11/20 07:39:00;;;;;;;17.50;12.87;;;;;;;11.57;93.19;102154.31;6216618;28;20236;-65
2021/11/20 07:42:21;;;;;;;16.83;13.43;;;;;;;11.35;93.18;102157.59;6224776;28;20216;-65
2021/11/20 07:46:09;;;;;;;15.90;12.10;;;;;;;11.70;91.64;102144.81;6200796;28;20232;-66
2021/11/20 07:49:31;;;;;;;20.00;12.40;;;;;;;11.52;92.61;102150.78;6209790;28;20229;-65
2021/11/20 07:52:51;;;;;;;20.87;14.23;;;;;;;11.23;94.45;102148.78;6232264;28;20201;-65
2021/11/20 07:56:15;;;;;;;19.57;13.83;;;;;;;11.39;94.09;102141.09;6218368;28;20622;-65
2021/11/20 07:59:39;;;;;;;18.13;13.13;;;;;;;11.34;93.66;102143.69;6222359;28;20228;-65
2021/11/20 08:03:20;;;;;;;17.33;13.80;;;;;;;11.38;93.18;102141.94;6232389;28;20209;-65
2021/11/20 08:06:45;;;;;;;15.30;12.47;;;;;;;11.43;92.33;102140.25;6231555;28;20300;-63
2021/11/20 08:10:22;;;;;;;23.90;14.60;;;;;;;11.34;93.48;102153.22;6227828;28;20221;-65
2021/11/20 08:13:45;;;;;;;18.00;12.07;;;;;;;11.51;93.73;102135.97;6222779;28;20247;-64
2021/11/20 08:17:24;;;;;;;14.40;12.87;;;;;;;11.45;92.63;102128.09;6237553;28;20201;-64
2021/11/20 08:21:14;;;;;;;16.93;13.10;;;;;;;11.11;94.93;102127.81;6224981;28;20209;-65
2021/11/20 08:24:51;;;;;;;18.73;13.33;;;;;;;11.39;93.44;102121.09;6225600;28;20248;-63
2021/11/20 08:28:14;;;;;;;17.60;13.87;;;;;;;11.56;92.36;102120.38;6238416;28;20698;-64
2021/11/20 08:31:41;;;;;;;17.23;14.43;;;;;;;11.43;92.85;102125.47;6222621;28;20213;-64
2021/11/20 08:35:22;;;;;;;14.07;12.33;;;;;;;11.59;91.96;102121.28;6236233;28;20250;-65
2021/11/20 08:39:14;;;;;;;15.13;12.07;;;;;;;11.68;91.42;102114.38;6205116;28;20567;-65
2021/11/20 08:42:36;;;;;;;17.07;10.90;;;;;;;11.58;91.11;102108.22;6223531;28;20193;-64
2021/11/20 08:46:02;;;;;;;12.67;11.37;;;;;;;11.71;90.88;102103.94;6223550;28;20224;-65
2021/11/20 08:49:25;;;;;;;14.53;11.67;;;;;;;11.56;92.34;102115.16;6220286;28;20233;-65
2021/11/20 08:52:47;;;;;;;12.10;10.97;;;;;;;11.56;91.94;102089.94;6216097;28;20201;-64
2021/11/20 08:56:10;;;;;;;17.83;11.57;;;;;;;11.44;91.35;102100.28;6218327;28;20232;-65
2021/11/20 08:59:36;;;;;;;15.50;10.33;;;;;;;11.48;91.13;102096.84;6217112;28;20796;-65
2021/11/20 09:03:04;;;;;;;11.93;10.43;;;;;;;11.65;90.80;102093.47;6230765;28;20220;-65
2021/11/20 09:06:31;;;;;;;14.77;10.17;;;;;;;11.70;90.07;102089.16;6232716;28;20212;-65
2021/11/20 09:09:56;;;;;;;10.60;9.47;;;;;;;11.82;88.95;102084.91;6221577;28;20248;-63
2021/11/20 09:13:20;;;;;;;9.00;7.97;;;;;;;11.63;89.06;102086.50;6234153;28;20221;-65
2021/11/20 09:16:44;;;;;;;11.10;9.33;;;;;;;11.98;87.44;102090.22;6236009;28;20272;-65
2021/11/20 09:20:07;;;;;;;11.60;9.23;;;;;;;11.90;87.23;102084.94;6233596;28;20224;-65
2021/11/20 09:23:29;;;;;;;10.60;8.67;;;;;;;11.72;88.00;102084.81;6231992;28;20221;-65
2021/11/20 09:26:59;;;;;;;12.23;9.13;;;;;;;12.01;86.77;102088.50;6221398;28;20192;-65
2021/11/20 09:30:23;;;;;;;11.80;8.70;;;;;;;11.92;86.16;102074.53;6211522;28;20678;-66
2021/11/20 09:33:46;;;;;;;9.53;8.53;;;;;;;11.71;87.41;102077.84;6209683;28;20256;-65
2021/11/20 09:37:08;;;;;;;9.83;8.70;;;;;;;11.96;86.41;102077.16;6232090;28;20672;-66
2021/11/20 09:40:49;;;;;;;9.03;6.97;;;;;;;11.93;85.62;102082.38;6204272;28;20239;-65
2021/11/20 09:44:10;;;;;;;9.13;8.23;;;;;;;12.06;85.77;102079.81;6211910;28;20312;-64
2021/11/20 09:47:33;;;;;;;11.30;8.27;;;;;;;11.87;85.85;102086.66;6234210;28;20196;-67
2021/11/20 09:51:05;;;;;;;11.83;8.73;;;;;;;11.90;85.77;102071.88;6221469;28;20220;-66
2021/11/20 09:54:32;;;;;;;9.23;8.13;;;;;;;11.91;85.37;102075.41;6237162;28;21020;-65
2021/11/20 09:58:04;;;;;;;8.40;7.63;;;;;;;12.05;84.47;102058.06;6238479;28;20280;-64
2021/11/20 10:01:37;;;;;;;9.60;8.47;;;;;;;12.18;84.32;102061.59;6236136;28;20243;-66
2021/11/20 10:05:02;;;;;;;9.50;8.57;;;;;;;11.98;84.75;102064.09;6234913;28;20232;-66
2021/11/20 10:08:26;;;;;;;12.40;8.17;;;;;;;12.08;84.22;102045.03;6218389;28;21958;-65
2021/11/20 10:11:54;;;;;;;7.87;7.07;;;;;;;12.11;82.97;102058.06;6233199;28;20232;-66
2021/11/20 10:15:19;;;;;;;8.97;8.07;;;;;;;12.07;84.50;102039.78;6214219;28;20319;-65
2021/11/20 10:18:52;;;;;;;9.47;7.80;;;;;;;12.20;83.16;102037.22;6235494;28;20508;-66
2021/11/20 10:22:20;;;;;;;8.43;7.47;;;;;;;12.47;81.89;102029.50;6242578;28;20208;-66
2021/11/20 10:26:13;;;;;;;11.27;8.07;;;;;;;12.04;83.70;102039.75;6235587;28;20227;-65
2021/11/20 10:29:57;;;;;;;8.33;7.53;;;;;;;12.60;81.43;102028.63;6236764;28;20228;-66
2021/11/20 10:33:23;;;;;;;9.97;8.23;;;;;;;12.27;82.16;102032.03;6231138;28;20538;-65
2021/11/20 10:36:48;;;;;;;9.00;8.30;;;;;;;11.97;83.22;102031.91;6231787;28;20233;-65
2021/11/20 10:40:19;;;;;;;8.77;7.97;;;;;;;11.96;83.67;102013.63;6234998;28;20248;-64
2021/11/20 10:43:44;;;;;;;11.57;8.57;;;;;;;11.92;83.82;102020.59;6234098;28;20232;-65
2021/11/20 10:47:15;;;;;;;10.57;6.57;;;;;;;12.20;82.51;102011.13;6234828;28;20209;-64
2021/11/20 10:50:40;;;;;;;8.17;7.37;;;;;;;12.26;82.48;102012.00;6236396;28;20228;-65
2021/11/20 10:54:36;;;;;;;8.97;8.00;;;;;;;12.12;82.75;102007.63;6236168;28;20236;-63
2021/11/20 10:58:47;;;;;;;8.10;7.33;;;;;;;12.00;83.22;102012.78;6226215;28;20193;-65
2021/11/20 11:02:34;;;;;;;9.13;8.30;;;;;;;12.17;81.78;102011.13;6236801;28;20231;-64
2021/11/20 11:06:34;;;;;;;9.50;8.20;;;;;;;11.83;84.41;102008.31;6240482;28;20227;-64
2021/11/20 11:10:01;;;;;;;9.20;8.40;;;;;;;11.87;83.79;101985.72;6232043;28;20621;-65
2021/11/20 11:13:33;;;;;;;9.93;9.13;;;;;;;11.91;83.15;101977.06;6230967;28;20240;-63
2021/11/20 11:16:59;;;;;;;12.37;8.57;;;;;;;11.71;83.92;101976.06;6234396;28;20857;-65
2021/11/20 11:20:28;;;;;;;8.77;7.73;;;;;;;11.71;83.31;101955.19;6237208;28;20552;-64
2021/11/20 11:24:05;;;;;;;7.90;7.10;;;;;;;11.92;82.89;101952.72;6239084;28;20228;-64
2021/11/20 11:27:35;;;;;;;9.20;8.17;;;;;;;11.66;82.88;101943.88;6237314;28;20200;-64
2021/11/20 11:31:27;;;;;;;8.60;7.70;;;;;;;11.85;82.17;101950.91;6233890;28;20228;-65
2021/11/20 11:34:51;;;;;;;7.90;7.20;;;;;;;11.60;82.93;101927.31;6233121;28;20228;-65
2021/11/20 11:38:30;;;;;;;9.60;8.63;;;;;;;11.73;82.72;101919.53;6235871;28;20197;-64
2021/11/20 11:42:02;;;;;;;8.93;8.00;;;;;;;11.76;82.81;101917.81;6235114;28;20216;-65
2021/11/20 11:45:57;;;;;;;9.27;8.43;;;;;;;11.70;82.57;101919.53;6234970;28;20232;-64
2021/11/20 11:49:42;;;;;;;8.87;7.97;;;;;;;12.07;81.50;101910.09;6232247;28;20232;-64
2021/11/20 11:53:40;;;;;;;9.87;8.97;;;;;;;11.88;81.82;101898.69;6222104;28;20209;-65
2021/11/20 11:57:21;;;;;;;11.60;10.33;;;;;;;11.77;82.78;101895.22;6235396;28;20224;-66
2021/11/20 12:00:56;;;;;;;10.50;9.60;;;;;;;11.88;81.94;101897.84;6241966;28;20243;-64
2021/11/20 12:04:30;;;;;;;11.70;10.60;;;;;;;11.61;81.99;101883.81;6233777;28;20217;-64
2021/11/20 12:07:59;;;;;;;11.30;10.10;;;;;;;11.79;81.36;101877.81;6237540;28;20239;-65
2021/11/20 12:11:33;;;;;;;11.97;10.73;;;;;;;11.94;81.20;101875.28;6240003;28;20228;-66
2021/11/20 12:14:54;;;;;;;13.03;11.73;;;;;;;11.84;81.39;101876.06;6232168;28;20540;-66
2021/11/20 12:18:23;;;;;;;24.93;12.00;;;;;;;11.75;81.71;101860.41;6232791;28;20280;-64
2021/11/20 12:21:56;;;;;;;11.80;10.80;;;;;;;11.90;81.28;101863.06;6230686;28;20231;-65
2021/11/20 12:25:30;;;;;;;11.43;10.43;;;;;;;11.77;81.24;101838.66;6228504;28;20240;-64
2021/11/20 12:29:26;;;;;;;11.87;10.87;;;;;;;11.67;80.57;101830.78;6230677;28;20224;-64
2021/11/20 12:33:05;;;;;;;12.37;11.17;;;;;;;11.46;81.53;101816.84;6232969;28;20224;-65
2021/11/20 12:36:47;;;;;;;13.53;12.30;;;;;;;11.78;80.53;101797.78;6228236;28;20229;-64
2021/11/20 12:40:38;;;;;;;13.90;12.67;;;;;;;11.83;80.16;101796.06;6220970;28;20236;-64
2021/11/20 12:44:20;;;;;;;12.63;11.43;;;;;;;12.04;79.71;101796.94;6225880;28;20224;-64
2021/11/20 12:48:08;;;;;;;14.40;12.90;;;;;;;11.72;80.96;101787.34;6231669;28;20232;-65
2021/11/20 12:51:49;;;;;;;16.07;14.67;;;;;;;11.75;80.61;101792.56;6230792;28;20541;-64
2021/11/20 12:55:38;;;;;;;14.83;13.43;;;;;;;11.67;81.19;101778.63;6229671;28;20251;-64
2021/11/20 12:59:01;;;;;;;15.20;13.80;;;;;;;11.75;81.72;101764.72;6226981;28;20237;-64
2021/11/20 13:02:36;;;;;;;15.83;14.47;;;;;;;11.61;82.19;101748.16;6231509;28;20562;-64
2021/11/20 13:06:00;;;;;;;19.30;15.87;;;;;;;11.58;82.33;101749.03;6238277;28;20323;-64
2021/11/20 13:09:30;;;;;;;16.97;15.07;;;;;;;11.79;81.31;101752.56;6218309;28;20220;-64
2021/11/20 13:12:56;;;;;;;17.13;15.53;;;;;;;11.93;80.81;101743.00;6238853;28;20807;-64
2021/11/20 13:16:29;;;;;;;16.87;15.37;;;;;;;11.54;82.05;101741.22;6231053;28;20228;-64
2021/11/20 13:19:53;;;;;;;15.63;14.20;;;;;;;11.49;81.84;101722.94;6232078;28;20232;-64
2021/11/20 13:23:17;;;;;;;18.20;16.63;;;;;;;11.76;80.26;101723.84;6236319;28;20205;-64
2021/11/20 13:27:01;;;;;;;17.37;15.67;;;;;;;11.57;81.81;101718.63;6232764;28;20205;-65
2021/11/20 13:30:27;;;;;;;16.97;15.57;;;;;;;11.68;81.57;101721.22;6223295;28;20224;-64
2021/11/20 13:33:48;;;;;;;16.23;14.23;;;;;;;11.46;81.57;101714.22;6219827;28;20236;-63
2021/11/20 13:37:11;;;;;;;16.17;14.77;;;;;;;11.50;80.82;101724.69;6236531;28;20189;-64
2021/11/20 13:40:35;;;;;;;16.97;15.27;;;;;;;11.71;80.99;101715.13;6233908;28;20328;-64
2021/11/20 13:43:56;;;;;;;18.20;15.47;;;;;;;11.53;81.72;101703.81;6234286;28;20614;-64
2021/11/20 13:47:19;;;;;;;15.57;14.17;;;;;;;11.36;83.16;101692.47;6237527;28;20196;-64
2021/11/20 13:50:43;;;;;;;17.20;15.57;;;;;;;11.46;83.14;101690.75;6230113;28;20224;-64
2021/11/20 13:54:08;;;;;;;16.43;14.97;;;;;;;11.59;82.44;101693.41;6234512;28;20323;-64
2021/11/20 13:57:32;;;;;;;17.03;15.50;;;;;;;11.44;82.05;101682.94;6233937;28;20224;-64
2021/11/20 14:00:56;;;;;;;17.37;15.60;;;;;;;11.37;83.75;101687.25;6242014;28;20224;-63
2021/11/20 14:04:20;;;;;;;17.67;16.17;;;;;;;11.59;82.71;101672.53;6232899;28;20248;-63
2021/11/20 14:07:41;;;;;;;18.80;17.10;;;;;;;11.35;83.67;101677.72;6217706;28;21615;-63
2021/11/20 14:11:08;;;;;;;19.13;17.40;;;;;;;11.41;84.82;101672.50;6230846;28;20252;-64
2021/11/20 14:14:29;;;;;;;19.03;17.10;;;;;;;11.50;83.54;101662.09;6218640;28;20232;-66
2021/11/20 14:17:50;;;;;;;18.40;16.67;;;;;;;11.15;85.61;101649.88;6234124;28;20192;-66
2021/11/20 14:21:12;;;;;;;17.83;16.10;;;;;;;10.96;86.60;101661.13;6241107;28;20232;-65
2021/11/20 14:24:35;;;;;;;18.30;16.60;;;;;;;11.06;86.47;101659.41;6236802;28;20236;-67
2021/11/20 14:27:59;;;;;;;17.97;16.17;;;;;;;10.89;87.59;101641.13;6238828;28;20205;-67
2021/11/20 14:31:23;;;;;;;18.70;16.90;;;;;;;10.97;87.16;101645.50;6240661;28;20228;-66
2021/11/20 14:34:47;;;;;;;19.93;18.03;;;;;;;11.09;86.92;101639.44;6242503;28;20236;-67
2021/11/20 14:38:09;;;;;;;19.53;17.63;;;;;;;11.04;87.26;101642.00;6240921;28;20189;-67
2021/11/20 14:41:35;;;;;;;20.83;18.90;;;;;;;11.19;87.79;101637.72;6233769;28;20228;-67
2021/11/20 14:45:03;;;;;;;21.83;19.83;;;;;;;10.69;89.51;101638.44;6241167;28;20626;-65
2021/11/20 14:48:26;;;;;;;20.93;18.83;;;;;;;10.65;91.51;101619.34;6238198;28;20195;-66
2021/11/20 14:51:50;;;;;;;19.63;17.63;;;;;;;10.68;91.01;101614.13;6241842;28;20570;-65
2021/11/20 14:55:12;;;;;;;21.63;19.53;;;;;;;10.53;92.20;101619.28;6232877;28;20260;-66
2021/11/20 14:58:33;;;;;;;23.90;21.70;;;;;;;10.97;91.42;101602.91;6241467;28;20228;-66
2021/11/20 15:01:54;;;;;;;21.80;19.60;;;;;;;10.42;94.38;101609.69;6236881;28;20295;-65
2021/11/20 15:05:15;;;;;;;26.00;23.43;;;;;;;10.50;93.62;101598.44;6244327;28;20224;-66
2021/11/20 15:08:37;;;;;;;24.83;22.37;;;;;;;10.82;92.41;101588.97;6236703;28;20228;-66
2021/11/20 15:12:00;;;;;;;23.57;21.17;;;;;;;10.36;94.79;101593.19;6241062;28;20212;-66
2021/11/20 15:15:21;;;;;;;24.53;22.20;;;;;;;10.62;94.18;101590.66;6241162;28;20233;-65
2021/11/20 15:18:43;;;;;;;24.77;22.40;;;;;;;10.55;95.21;101581.09;6223250;28;20303;-65
2021/11/20 15:22:05;;;;;;;25.73;23.37;;;;;;;10.36;96.69;101593.19;6239124;28;20204;-66
2021/11/20 15:25:26;;;;;;;27.17;24.47;;;;;;;10.61;95.40;101565.50;6237354;28;20216;-65
2021/11/20 15:28:48;;;;;;;24.90;22.40;;;;;;;10.33;96.66;101582.75;6237790;28;20224;-66
2021/11/20 15:32:09;;;;;;;27.57;24.87;;;;;;;10.43;97.43;101572.38;6236034;28;20201;-65
2021/11/20 15:35:31;;;;;;;25.73;23.13;;;;;;;10.49;96.99;101566.31;6237791;28;20232;-66
2021/11/20 15:38:52;;;;;;;24.20;21.47;;;;;;;10.31;96.42;101564.50;6238193;28;20233;-65
2021/11/20 15:42:13;;;;;;;24.40;21.83;;;;;;;10.33;97.15;101568.00;6237758;28;20216;-67
2021/11/20 15:45:35;;;;;;;25.83;23.30;;;;;;;10.21;98.13;101560.09;6238734;28;20224;-65
2021/11/20 15:48:57;;;;;;;23.83;20.57;;;;;;;10.15;98.15;101553.13;6229431;28;20228;-64
2021/11/20 15:52:18;;;;;;;26.17;23.67;;;;;;;10.29;98.52;101544.50;6236832;28;20189;-64